Time;durP1;ratioP1;P1;durP2;ratioP2;P2;SDS_P1;SDS_P2;PMS_P1;PMS_P2;Temp;Humidity;BMP_temperature;BMP_pressure;BME280_temperature;BME280_humidity;BME280_pressure;Samples;Min_cycle;Max_cycle;Signal;HPM_P1;HPM_P2
2022/04/16 00:00:41;;;;;;;;;;;8.20;99.90;;;;;;4959763;28;20376;-77
2022/04/16 00:03:10;;;;;;;;;;;8.20;99.90;;;;;;4975487;28;19917;-78
2022/04/16 00:05:35;;;;;;;;;;;8.10;99.90;;;;;;4975445;28;20369;-77
2022/04/16 00:08:07;;;;;;;;;;;8.00;99.90;;;;;;4975513;28;20340;-77
2022/04/16 00:10:37;;;;;;;;;;;8.00;99.90;;;;;;4975193;28;19918;-78
2022/04/16 00:13:02;;;;;;;;;;;7.90;99.90;;;;;;4959348;28;19924;-77
2022/04/16 00:15:28;;;;;;;;;;;7.80;99.90;;;;;;4975038;28;20369;-76
2022/04/16 00:17:55;;;;;;;;;;;7.80;99.90;;;;;;4975665;28;19921;-78
2022/04/16 00:20:25;;;;;;;;;;;7.70;99.90;;;;;;4975392;28;19965;-77
2022/04/16 00:22:53;;;;;;;;;;;7.60;99.90;;;;;;4991430;28;19917;-76
2022/04/16 00:25:19;;;;;;;;;;;7.60;99.90;;;;;;4974254;28;19922;-77
2022/04/16 00:27:46;;;;;;;;;;;7.50;99.90;;;;;;4975393;28;19922;-77
2022/04/16 00:30:12;;;;;;;;;;;7.40;99.90;;;;;;4974954;28;20020;-77
2022/04/16 00:32:38;;;;;;;;;;;7.30;99.90;;;;;;4959112;28;19989;-77
2022/04/16 00:35:03;;;;;;;;;;;7.30;99.90;;;;;;4974954;28;20391;-78
2022/04/16 00:37:29;;;;;;;;;;;7.20;99.90;;;;;;4975170;28;19972;-78
2022/04/16 00:39:54;;;;;;;;;;;7.10;99.90;;;;;;4974909;28;19918;-78
2022/04/16 00:42:20;;;;;;;;;;;7.10;99.90;;;;;;4991064;28;19928;-78
2022/04/16 00:44:46;;;;;;;;;;;7.00;99.90;;;;;;4974677;28;20049;-78
2022/04/16 00:47:12;;;;;;;;;;;7.00;99.90;;;;;;4980484;28;19965;-77
2022/04/16 00:49:38;;;;;;;;;;;7.00;99.90;;;;;;4993994;28;19972;-77
2022/04/16 00:52:04;;;;;;;;;;;7.00;99.90;;;;;;4994075;28;19928;-78
2022/04/16 00:54:30;;;;;;;;;;;7.10;99.90;;;;;;4994074;28;20319;-78
2022/04/16 00:56:55;;;;;;;;;;;7.10;99.90;;;;;;4993832;28;19967;-77
2022/04/16 00:59:21;;;;;;;;;;;7.20;99.90;;;;;;4977810;28;19918;-77
2022/04/16 01:01:46;;;;;;;;;;;7.20;99.90;;;;;;4994156;28;19917;-78
2022/04/16 01:04:12;;;;;;;;;;;7.20;99.90;;;;;;4994215;28;19917;-77
2022/04/16 01:06:39;;;;;;;;;;;7.20;99.90;;;;;;4993961;28;19921;-77
2022/04/16 01:09:05;;;;;;;;;;;7.10;99.90;;;;;;4993816;28;19933;-77
2022/04/16 01:11:32;;;;;;;;;;;7.10;99.90;;;;;;4993704;28;19922;-77
2022/04/16 01:13:58;;;;;;;;;;;7.10;99.90;;;;;;4993923;28;19922;-77
2022/04/16 01:16:24;;;;;;;;;;;7.00;99.90;;;;;;4993779;28;20336;-77
2022/04/16 01:18:50;;;;;;;;;;;6.90;99.90;;;;;;4977826;28;19928;-77
2022/04/16 01:21:15;;;;;;;;;;;7.00;99.90;;;;;;5011679;28;19941;-77
2022/04/16 01:23:41;;;;;;;;;;;6.90;99.90;;;;;;4993625;28;19984;-76
2022/04/16 01:26:07;;;;;;;;;;;6.90;99.90;;;;;;4977532;28;20393;-77
2022/04/16 01:28:33;;;;;;;;;;;6.90;99.90;;;;;;4993346;28;19956;-77
2022/04/16 01:30:58;;;;;;;;;;;6.90;99.90;;;;;;4977173;28;19995;-77
2022/04/16 01:33:24;;;;;;;;;;;6.90;99.90;;;;;;4994104;28;19968;-78
2022/04/16 01:35:56;;;;;;;;;;;6.90;99.90;;;;;;4994671;28;20387;-78
2022/04/16 01:38:25;;;;;;;;;;;6.80;99.90;;;;;;4997859;28;19996;-78
2022/04/16 01:40:54;;;;;;;;;;;6.80;99.90;;;;;;4982471;28;19922;-78
2022/04/16 01:43:20;;;;;;;;;;;6.80;99.90;;;;;;5017312;28;19992;-77
2022/04/16 01:45:48;;;;;;;;;;;6.80;99.90;;;;;;5000816;28;20360;-78
2022/04/16 01:48:13;;;;;;;;;;;6.80;99.90;;;;;;5016769;28;19925;-78
2022/04/16 01:50:40;;;;;;;;;;;6.70;99.90;;;;;;5016963;28;19927;-78
2022/04/16 01:53:06;;;;;;;;;;;6.70;99.90;;;;;;5017321;28;19964;-76
2022/04/16 01:55:31;;;;;;;;;;;6.70;99.90;;;;;;5016630;28;20332;-77
2022/04/16 01:57:58;;;;;;;;;;;6.70;99.90;;;;;;5016788;28;19921;-78
2022/04/16 02:00:23;;;;;;;;;;;6.70;99.90;;;;;;5014116;28;19968;-78
2022/04/16 02:02:50;;;;;;;;;;;6.70;99.90;;;;;;4996827;28;19964;-77
2022/04/16 02:05:16;;;;;;;;;;;6.70;99.90;;;;;;5013908;28;19925;-78
2022/04/16 02:07:41;;;;;;;;;;;6.70;99.90;;;;;;4996557;28;19967;-78
2022/04/16 02:10:08;;;;;;;;;;;6.70;99.90;;;;;;4996823;28;19917;-78
2022/04/16 02:12:35;;;;;;;;;;;6.70;99.90;;;;;;4980733;28;19924;-77
2022/04/16 02:15:01;;;;;;;;;;;6.70;99.90;;;;;;4979906;28;19979;-78
2022/04/16 02:17:26;;;;;;;;;;;6.70;99.90;;;;;;4996661;28;19925;-78
2022/04/16 02:19:52;;;;;;;;;;;6.70;99.90;;;;;;4996803;28;19983;-77
2022/04/16 02:22:17;;;;;;;;;;;6.70;99.90;;;;;;4996357;28;19967;-72
2022/04/16 02:24:46;;;;;;;;;;;6.60;99.90;;;;;;4996162;28;19917;-73
2022/04/16 02:27:12;;;;;;;;;;;6.70;99.90;;;;;;4996539;28;20011;-73
2022/04/16 02:29:37;;;;;;;;;;;6.70;99.90;;;;;;4996096;28;20324;-73
2022/04/16 02:32:03;;;;;;;;;;;6.70;99.90;;;;;;4996208;28;19918;-72
2022/04/16 02:34:29;;;;;;;;;;;6.70;99.90;;;;;;4996227;28;19925;-72
2022/04/16 02:36:57;;;;;;;;;;;6.70;99.90;;;;;;4996206;28;20048;-72
2022/04/16 02:39:22;;;;;;;;;;;6.80;99.90;;;;;;4996083;28;19917;-72
2022/04/16 02:41:48;;;;;;;;;;;6.80;99.90;;;;;;4996153;28;19955;-72
2022/04/16 02:47:08;;;;;;;;;;;6.90;99.90;;;;;;4995662;28;19918;-77
2022/04/16 02:49:35;;;;;;;;;;;6.90;99.90;;;;;;4995918;28;20452;-78
2022/04/16 02:52:01;;;;;;;;;;;7.10;99.90;;;;;;4996432;28;20368;-77
2022/04/16 02:54:27;;;;;;;;;;;7.10;99.90;;;;;;4979729;28;20033;-77
2022/04/16 02:56:53;;;;;;;;;;;7.30;99.90;;;;;;5014250;28;19956;-78
2022/04/16 02:59:19;;;;;;;;;;;7.30;99.90;;;;;;4996331;28;19921;-78
2022/04/16 03:01:44;;;;;;;;;;;7.40;99.90;;;;;;4996370;28;19925;-77
2022/04/16 03:04:10;;;;;;;;;;;7.50;99.90;;;;;;4996474;28;19925;-78
2022/04/16 03:06:37;;;;;;;;;;;7.50;99.90;;;;;;4995983;28;20442;-77
2022/04/16 03:09:02;;;;;;;;;;;7.60;99.90;;;;;;4996086;28;20110;-77
2022/04/16 03:11:28;;;;;;;;;;;7.60;99.90;;;;;;4995958;28;19998;-78
2022/04/16 03:13:53;;;;;;;;;;;7.70;99.90;;;;;;4996189;28;19925;-78
2022/04/16 03:19:04;;;;;;;;;;;7.70;99.90;;;;;;4996338;28;19948;-78
2022/04/16 03:21:29;;;;;;;;;;;7.80;99.90;;;;;;4994184;28;19975;-77
2022/04/16 03:23:55;;;;;;;;;;;7.80;99.90;;;;;;4992519;28;20343;-79
2022/04/16 03:26:20;;;;;;;;;;;7.80;99.90;;;;;;4992585;28;19969;-77
2022/04/16 03:28:46;;;;;;;;;;;7.90;99.90;;;;;;4976560;28;20288;-77
2022/04/16 03:31:12;;;;;;;;;;;7.90;99.90;;;;;;4976334;28;19925;-77
2022/04/16 03:33:38;;;;;;;;;;;7.90;99.90;;;;;;4992392;28;19928;-78
2022/04/16 03:36:04;;;;;;;;;;;7.90;99.90;;;;;;4976542;28;19990;-78
2022/04/16 03:38:29;;;;;;;;;;;7.90;99.90;;;;;;4992355;28;19922;-78
2022/04/16 03:40:55;;;;;;;;;;;7.90;99.90;;;;;;4992644;28;19948;-78
2022/04/16 03:43:21;;;;;;;;;;;7.90;99.90;;;;;;5002417;28;19952;-78
2022/04/16 03:45:47;;;;;;;;;;;7.90;99.90;;;;;;5009269;28;19980;-78
2022/04/16 03:48:13;;;;;;;;;;;7.90;99.90;;;;;;4996841;28;19965;-78
2022/04/16 03:50:40;;;;;;;;;;;7.90;99.90;;;;;;4992751;28;19939;-77
2022/04/16 03:53:06;;;;;;;;;;;7.90;99.90;;;;;;4994543;28;19917;-78
2022/04/16 04:01:02;;;;;;;;;;;7.90;99.90;;;;;;4991411;28;19979;-77
2022/04/16 04:03:27;;;;;;;;;;;7.80;99.90;;;;;;4975285;28;19922;-77
2022/04/16 04:05:54;;;;;;;;;;;7.80;99.90;;;;;;4990512;28;19940;-78
2022/04/16 04:08:20;;;;;;;;;;;7.80;99.90;;;;;;4992737;28;20373;-78
2022/04/16 04:10:46;;;;;;;;;;;7.80;99.90;;;;;;4992621;28;20034;-77
2022/04/16 04:13:13;;;;;;;;;;;7.80;99.90;;;;;;4991401;28;20365;-77
2022/04/16 04:15:39;;;;;;;;;;;7.70;99.90;;;;;;4991204;28;20338;-77
2022/04/16 04:18:05;;;;;;;;;;;7.70;99.90;;;;;;4991464;28;19922;-78
2022/04/16 04:20:30;;;;;;;;;;;7.70;99.90;;;;;;4991479;28;19922;-77
2022/04/16 04:22:56;;;;;;;;;;;7.70;99.90;;;;;;4992752;28;19929;-77
2022/04/16 04:25:22;;;;;;;;;;;7.70;99.90;;;;;;4991263;28;20372;-77
2022/04/16 04:27:47;;;;;;;;;;;7.70;99.90;;;;;;4990876;28;19933;-77
2022/04/16 04:30:13;;;;;;;;;;;7.60;99.90;;;;;;4991375;28;19925;-78
2022/04/16 04:32:39;;;;;;;;;;;7.70;99.90;;;;;;4991752;28;19921;-77
2022/04/16 04:35:06;;;;;;;;;;;7.60;99.90;;;;;;4991133;28;19922;-78
2022/04/16 04:37:31;;;;;;;;;;;7.60;99.90;;;;;;4991376;28;19964;-78
2022/04/16 04:39:57;;;;;;;;;;;7.60;99.90;;;;;;4992272;28;20434;-77
2022/04/16 04:42:23;;;;;;;;;;;7.60;99.90;;;;;;4990836;28;19925;-78
2022/04/16 04:44:49;;;;;;;;;;;7.60;99.90;;;;;;4975165;28;20324;-78
2022/04/16 04:47:14;;;;;;;;;;;7.50;99.90;;;;;;4990670;28;19933;-78
2022/04/16 04:49:40;;;;;;;;;;;7.60;99.90;;;;;;4990697;28;20029;-77
2022/04/16 04:52:06;;;;;;;;;;;7.50;99.90;;;;;;4990828;28;19924;-77
2022/04/16 04:54:31;;;;;;;;;;;7.50;99.90;;;;;;4990459;28;19918;-77
2022/04/16 04:56:57;;;;;;;;;;;7.50;99.90;;;;;;4990735;28;19918;-78
2022/04/16 04:59:22;;;;;;;;;;;7.50;99.90;;;;;;4990341;28;19969;-77
2022/04/16 05:01:48;;;;;;;;;;;7.50;99.90;;;;;;4990538;28;20229;-78
2022/04/16 05:04:13;;;;;;;;;;;7.50;99.90;;;;;;4990586;28;19960;-77
2022/04/16 05:06:39;;;;;;;;;;;7.50;99.90;;;;;;4990352;28;19929;-78
2022/04/16 05:09:04;;;;;;;;;;;7.60;99.90;;;;;;4990800;28;19976;-77
2022/04/16 05:11:30;;;;;;;;;;;7.50;99.90;;;;;;4973811;28;19922;-77
2022/04/16 05:13:56;;;;;;;;;;;7.50;99.90;;;;;;4990519;28;19943;-78
2022/04/16 05:16:21;;;;;;;;;;;7.60;99.90;;;;;;4990062;28;19941;-73
2022/04/16 05:18:47;;;;;;;;;;;7.60;99.90;;;;;;4990110;28;19928;-73
2022/04/16 05:21:12;;;;;;;;;;;7.60;99.90;;;;;;4990054;28;20120;-73
2022/04/16 05:23:39;;;;;;;;;;;7.60;99.90;;;;;;4990112;28;19925;-73
2022/04/16 05:26:05;;;;;;;;;;;7.60;99.90;;;;;;4990396;28;19922;-72
2022/04/16 05:28:31;;;;;;;;;;;7.70;99.90;;;;;;4990058;28;19947;-72
2022/04/16 05:30:58;;;;;;;;;;;7.70;99.90;;;;;;4973931;28;20420;-72
2022/04/16 05:36:08;;;;;;;;;;;7.70;99.90;;;;;;4989952;28;20414;-72
2022/04/16 05:38:34;;;;;;;;;;;7.70;99.90;;;;;;4990041;28;19929;-73
2022/04/16 05:41:00;;;;;;;;;;;7.70;99.90;;;;;;4973850;28;20273;-72
2022/04/16 05:43:25;;;;;;;;;;;7.80;99.90;;;;;;4990120;28;19924;-72
2022/04/16 05:45:51;;;;;;;;;;;7.80;99.90;;;;;;4989605;28;20377;-72
2022/04/16 05:48:17;;;;;;;;;;;7.80;99.90;;;;;;4989667;28;19926;-72
2022/04/16 05:50:42;;;;;;;;;;;7.80;99.90;;;;;;4991257;28;19928;-73
2022/04/16 05:53:09;;;;;;;;;;;7.90;99.90;;;;;;4989824;28;20070;-74
2022/04/16 05:55:34;;;;;;;;;;;7.90;99.90;;;;;;4989741;28;19997;-73
2022/04/16 05:58:01;;;;;;;;;;;8.00;99.90;;;;;;4989799;28;20004;-73
2022/04/16 06:00:27;;;;;;;;;;;8.00;99.90;;;;;;4989772;28;19928;-73
2022/04/16 06:02:53;;;;;;;;;;;8.00;99.90;;;;;;4989761;28;19918;-73
2022/04/16 06:05:19;;;;;;;;;;;8.00;99.90;;;;;;4989953;28;20328;-72
2022/04/16 06:07:44;;;;;;;;;;;8.10;99.90;;;;;;4989630;28;19952;-73
2022/04/16 06:10:10;;;;;;;;;;;8.10;99.90;;;;;;4973285;28;19924;-73
2022/04/16 06:12:36;;;;;;;;;;;8.10;99.90;;;;;;4989449;28;19917;-72
2022/04/16 06:15:01;;;;;;;;;;;8.10;99.90;;;;;;4989640;28;19922;-72
2022/04/16 06:17:27;;;;;;;;;;;8.10;99.90;;;;;;4991081;28;19918;-73
2022/04/16 06:19:52;;;;;;;;;;;8.10;99.90;;;;;;4989825;28;19925;-72
2022/04/16 06:22:19;;;;;;;;;;;8.10;99.90;;;;;;4973220;28;20472;-72
2022/04/16 06:24:45;;;;;;;;;;;8.10;99.90;;;;;;4992978;28;20321;-72
2022/04/16 06:27:11;;;;;;;;;;;8.10;99.90;;;;;;4993259;28;19921;-72
2022/04/16 06:29:36;;;;;;;;;;;8.10;99.90;;;;;;4992881;28;19921;-72
2022/04/16 06:32:02;;;;;;;;;;;8.20;99.90;;;;;;4976681;28;19918;-72
2022/04/16 06:34:27;;;;;;;;;;;8.20;99.90;;;;;;4993365;28;19933;-72
2022/04/16 06:36:53;;;;;;;;;;;8.30;99.90;;;;;;4992772;28;20045;-73
2022/04/16 06:39:19;;;;;;;;;;;8.60;99.90;;;;;;4992816;28;20050;-72
2022/04/16 06:41:44;;;;;;;;;;;9.10;99.90;;;;;;4992668;28;19928;-72
2022/04/16 06:44:10;;;;;;;;;;;9.70;99.90;;;;;;4993032;28;20122;-73
2022/04/16 06:46:35;;;;;;;;;;;10.00;99.90;;;;;;4992901;28;20322;-72
2022/04/16 06:49:01;;;;;;;;;;;10.30;99.90;;;;;;4992543;28;19929;-72
2022/04/16 06:51:27;;;;;;;;;;;10.60;99.90;;;;;;4992458;28;20074;-72
2022/04/16 06:53:52;;;;;;;;;;;10.80;99.90;;;;;;4992378;28;19918;-72
2022/04/16 06:56:18;;;;;;;;;;;11.00;99.90;;;;;;4992330;28;19917;-72
2022/04/16 06:58:43;;;;;;;;;;;11.10;99.90;;;;;;4992283;28;20359;-72
2022/04/16 07:01:09;;;;;;;;;;;11.10;99.90;;;;;;4994104;28;19972;-72
2022/04/16 07:03:35;;;;;;;;;;;11.10;99.90;;;;;;4992428;28;19928;-72
2022/04/16 07:06:00;;;;;;;;;;;10.90;99.90;;;;;;4992172;28;19968;-73
2022/04/16 07:08:26;;;;;;;;;;;10.90;99.90;;;;;;4992369;28;19976;-72
2022/04/16 07:10:51;;;;;;;;;;;10.80;99.90;;;;;;4992208;28;19917;-72
2022/04/16 07:13:17;;;;;;;;;;;10.90;99.90;;;;;;4992593;28;19925;-72
2022/04/16 07:15:43;;;;;;;;;;;11.10;99.90;;;;;;4992086;28;20361;-73
2022/04/16 07:18:08;;;;;;;;;;;11.00;99.90;;;;;;4992037;28;20409;-73
2022/04/16 07:20:34;;;;;;;;;;;11.00;99.90;;;;;;4991865;28;19953;-73
2022/04/16 07:23:00;;;;;;;;;;;11.10;99.90;;;;;;4991951;28;20015;-73
2022/04/16 07:25:26;;;;;;;;;;;11.10;99.90;;;;;;4991846;28;19975;-73
2022/04/16 07:27:51;;;;;;;;;;;11.30;99.90;;;;;;4975748;28;19933;-73
2022/04/16 07:30:17;;;;;;;;;;;11.50;99.90;;;;;;4975858;28;19921;-73
2022/04/16 07:32:42;;;;;;;;;;;11.60;99.90;;;;;;4991709;28;19921;-73
2022/04/16 07:35:08;;;;;;;;;;;11.70;99.90;;;;;;4975060;28;19917;-73
2022/04/16 07:37:34;;;;;;;;;;;11.90;99.90;;;;;;4991688;28;19981;-73
2022/04/16 07:40:00;;;;;;;;;;;11.50;99.90;;;;;;4991757;28;19918;-73
2022/04/16 07:42:26;;;;;;;;;;;11.60;99.90;;;;;;4975502;28;19923;-73
2022/04/16 07:44:52;;;;;;;;;;;11.70;99.90;;;;;;4991609;28;19922;-72
2022/04/16 07:47:18;;;;;;;;;;;11.90;99.90;;;;;;4991776;28;19918;-73
2022/04/16 07:49:44;;;;;;;;;;;12.10;99.90;;;;;;4991412;28;20266;-73
2022/04/16 07:52:09;;;;;;;;;;;12.20;99.90;;;;;;4959623;28;20051;-73
2022/04/16 07:54:37;;;;;;;;;;;12.40;99.90;;;;;;4991649;28;20392;-72
2022/04/16 07:57:05;;;;;;;;;;;12.20;99.90;;;;;;4991546;28;19925;-72
2022/04/16 07:59:31;;;;;;;;;;;12.20;99.90;;;;;;4991079;28;19929;-73
2022/04/16 08:01:56;;;;;;;;;;;12.20;99.90;;;;;;4991377;28;19922;-73
2022/04/16 08:04:22;;;;;;;;;;;12.20;99.90;;;;;;4991354;28;19964;-73
2022/04/16 08:06:48;;;;;;;;;;;12.20;99.90;;;;;;4991354;28;19925;-73
2022/04/16 08:09:14;;;;;;;;;;;12.20;99.90;;;;;;4991129;28;19921;-73
2022/04/16 08:11:40;;;;;;;;;;;12.30;99.90;;;;;;4991026;28;19922;-73
2022/04/16 08:14:05;;;;;;;;;;;12.10;99.90;;;;;;4992479;28;19922;-72
2022/04/16 08:16:31;;;;;;;;;;;12.10;99.90;;;;;;4974717;28;19948;-72
2022/04/16 08:18:57;;;;;;;;;;;12.00;99.90;;;;;;4990844;28;19918;-72
2022/04/16 08:21:25;;;;;;;;;;;11.80;99.90;;;;;;4991307;28;19917;-72
2022/04/16 08:24:04;;;;;;;;;;;11.80;99.90;;;;;;4990852;28;19996;-72
2022/04/16 08:26:31;;;;;;;;;;;11.80;99.90;;;;;;4991136;28;19922;-72
2022/04/16 08:28:56;;;;;;;;;;;12.00;99.90;;;;;;4990781;28;20364;-72
2022/04/16 08:31:22;;;;;;;;;;;12.10;99.90;;;;;;4990776;28;19964;-72
2022/04/16 08:33:49;;;;;;;;;;;12.10;99.90;;;;;;4990973;28;19928;-73
2022/04/16 08:36:15;;;;;;;;;;;12.10;99.40;;;;;;4974762;28;19921;-72
2022/04/16 08:38:40;;;;;;;;;;;12.10;98.40;;;;;;4990625;28;20136;-72
2022/04/16 08:41:09;;;;;;;;;;;12.10;98.20;;;;;;4990671;28;19921;-73
2022/04/16 08:43:35;;;;;;;;;;;12.10;97.50;;;;;;4990828;28;20012;-73
2022/04/16 08:46:01;;;;;;;;;;;12.10;96.60;;;;;;4990042;28;20332;-73
2022/04/16 08:48:26;;;;;;;;;;;12.10;96.40;;;;;;4990642;28;20261;-74
2022/04/16 08:50:52;;;;;;;;;;;12.30;95.60;;;;;;4990401;28;19922;-73
2022/04/16 08:53:18;;;;;;;;;;;12.30;95.10;;;;;;4990308;28;19929;-71
2022/04/16 08:55:43;;;;;;;;;;;12.40;94.70;;;;;;4990364;28;19921;-72
2022/04/16 08:58:09;;;;;;;;;;;12.60;94.90;;;;;;4974258;28;19926;-72
2022/04/16 09:00:34;;;;;;;;;;;12.50;93.20;;;;;;4991568;28;19984;-72
2022/04/16 09:03:03;;;;;;;;;;;12.80;93.90;;;;;;4990233;28;20352;-72
2022/04/16 09:05:29;;;;;;;;;;;13.00;93.70;;;;;;4973874;28;19924;-72
2022/04/16 09:07:57;;;;;;;;;;;13.10;93.50;;;;;;4974272;28;19925;-73
2022/04/16 09:10:29;;;;;;;;;;;13.10;92.10;;;;;;4989985;28;20444;-72
2022/04/16 09:12:56;;;;;;;;;;;13.20;92.10;;;;;;4989852;28;20052;-72
2022/04/16 09:15:22;;;;;;;;;;;13.10;91.80;;;;;;4989935;28;20446;-73
2022/04/16 09:17:59;;;;;;;;;;;13.10;91.20;;;;;;4990007;28;20393;-72
2022/04/16 09:20:38;;;;;;;;;;;13.30;91.10;;;;;;4989852;28;19921;-73
2022/04/16 09:23:17;;;;;;;;;;;13.30;89.00;;;;;;4990525;28;19964;-73
2022/04/16 09:25:43;;;;;;;;;;;13.30;87.60;;;;;;4989913;28;19964;-73
2022/04/16 09:28:09;;;;;;;;;;;13.40;86.70;;;;;;4990034;28;19925;-73
2022/04/16 09:30:35;;;;;;;;;;;13.50;80.30;;;;;;4990230;28;19973;-73
2022/04/16 09:33:01;;;;;;;;;;;13.60;77.30;;;;;;4991448;28;19918;-72
2022/04/16 09:35:34;;;;;;;;;;;13.50;78.40;;;;;;4990025;28;19939;-73
2022/04/16 09:38:00;;;;;;;;;;;13.70;78.10;;;;;;4973648;28;19921;-72
2022/04/16 09:40:26;;;;;;;;;;;13.50;76.10;;;;;;4989780;28;20258;-72
2022/04/16 09:42:56;;;;;;;;;;;13.40;75.10;;;;;;4991194;28;19917;-73
2022/04/16 09:45:21;;;;;;;;;;;13.60;75.50;;;;;;4989905;28;19917;-73
2022/04/16 09:47:48;;;;;;;;;;;13.80;77.40;;;;;;4973535;28;19925;-72
2022/04/16 09:50:14;;;;;;;;;;;14.10;76.60;;;;;;4989685;28;19918;-72
2022/04/16 09:52:40;;;;;;;;;;;14.00;77.10;;;;;;4989697;28;19989;-72
2022/04/16 09:55:07;;;;;;;;;;;13.80;73.60;;;;;;4990971;28;19999;-73
2022/04/16 09:57:34;;;;;;;;;;;13.80;72.20;;;;;;4991649;28;19925;-73
2022/04/16 10:00:00;;;;;;;;;;;13.80;73.60;;;;;;4994981;28;19922;-72
2022/04/16 10:02:27;;;;;;;;;;;14.00;75.50;;;;;;4993601;28;19921;-73
2022/04/16 10:04:52;;;;;;;;;;;14.20;75.20;;;;;;4993269;28;20381;-73
2022/04/16 10:07:18;;;;;;;;;;;14.30;75.90;;;;;;4993089;28;19964;-73
2022/04/16 10:09:45;;;;;;;;;;;14.50;74.00;;;;;;4993663;28;19917;-78
2022/04/16 10:14:46;;;;;;;;;;;14.60;72.90;;;;;;4995945;28;19940;-78
2022/04/16 10:17:25;;;;;;;;;;;14.40;71.20;;;;;;4997569;28;19917;-78
2022/04/16 10:19:54;;;;;;;;;;;14.40;70.70;;;;;;4997827;28;19925;-77
2022/04/16 10:22:26;;;;;;;;;;;14.30;70.70;;;;;;4997130;28;20011;-78
2022/04/16 10:24:57;;;;;;;;;;;14.40;71.80;;;;;;4997395;28;19918;-78
2022/04/16 10:27:25;;;;;;;;;;;14.50;71.60;;;;;;4997549;28;19978;-79
2022/04/16 10:29:50;;;;;;;;;;;14.80;72.40;;;;;;4997111;28;19971;-78
2022/04/16 10:32:16;;;;;;;;;;;15.00;71.10;;;;;;4997547;28;19956;-79
2022/04/16 10:34:42;;;;;;;;;;;14.70;69.60;;;;;;4996896;28;19921;-79
2022/04/16 10:37:18;;;;;;;;;;;14.60;69.20;;;;;;4996947;28;19925;-78
2022/04/16 10:39:45;;;;;;;;;;;14.80;69.60;;;;;;4997226;28;20384;-77
2022/04/16 10:42:11;;;;;;;;;;;14.80;69.80;;;;;;4996735;28;20083;-78
2022/04/16 10:44:43;;;;;;;;;;;15.00;69.60;;;;;;4980330;28;20075;-79
2022/04/16 10:47:13;;;;;;;;;;;15.00;69.60;;;;;;4996734;28;20410;-79
2022/04/16 10:49:40;;;;;;;;;;;15.10;69.40;;;;;;4996547;28;20004;-78
2022/04/16 10:52:17;;;;;;;;;;;15.30;69.20;;;;;;4980162;28;19921;-78
2022/04/16 10:54:42;;;;;;;;;;;15.20;67.20;;;;;;4996044;28;19917;-79
2022/04/16 10:57:08;;;;;;;;;;;15.40;66.90;;;;;;4996274;28;19924;-80
2022/04/16 10:59:35;;;;;;;;;;;15.60;65.00;;;;;;4996071;28;20110;-80
2022/04/16 11:02:01;;;;;;;;;;;15.80;66.90;;;;;;4995810;28;20285;-80
2022/04/16 11:04:27;;;;;;;;;;;15.80;63.10;;;;;;4996045;28;20365;-80
2022/04/16 11:06:57;;;;;;;;;;;15.70;58.20;;;;;;4995798;28;19983;-80
2022/04/16 11:09:22;;;;;;;;;;;15.90;60.30;;;;;;4994557;28;19932;-78
2022/04/16 11:11:51;;;;;;;;;;;16.20;60.30;;;;;;4995704;28;20016;-80
2022/04/16 11:14:17;;;;;;;;;;;16.20;57.20;;;;;;4995561;28;19927;-79
2022/04/16 11:16:44;;;;;;;;;;;16.20;58.60;;;;;;4995117;28;19922;-79
2022/04/16 11:19:13;;;;;;;;;;;16.20;56.50;;;;;;4995645;28;19964;-79
2022/04/16 11:21:39;;;;;;;;;;;16.10;56.40;;;;;;4995267;28;19921;-80
2022/04/16 11:24:05;;;;;;;;;;;16.00;54.80;;;;;;4994959;28;19928;-79
2022/04/16 11:35:01;;;;;;;;;;;15.90;53.40;;;;;;4936223;29;19922;-80
2022/04/16 11:37:29;;;;;;;;;;;16.00;53.90;;;;;;4966774;28;19921;-79
2022/04/16 11:39:59;;;;;;;;;;;16.30;54.90;;;;;;4994947;28;19928;-80
2022/04/16 11:42:26;;;;;;;;;;;16.50;53.30;;;;;;4995079;28;19928;-80
2022/04/16 11:44:52;;;;;;;;;;;16.80;53.30;;;;;;4995241;28;19921;-80
2022/04/16 11:47:22;;;;;;;;;;;16.40;53.70;;;;;;5012494;28;19921;-80
2022/04/16 11:49:52;;;;;;;;;;;16.60;54.60;;;;;;4994873;28;20318;-81
2022/04/16 11:52:27;;;;;;;;;;;16.60;54.30;;;;;;4995573;28;20419;-80
2022/04/16 11:55:10;;;;;;;;;;;16.80;55.50;;;;;;4978287;28;19918;-79
2022/04/16 11:57:39;;;;;;;;;;;16.90;54.70;;;;;;4994625;28;20016;-80
2022/04/16 12:00:06;;;;;;;;;;;17.10;55.50;;;;;;4978446;28;20364;-80
2022/04/16 12:02:33;;;;;;;;;;;17.10;54.40;;;;;;4978467;28;19967;-80
2022/04/16 12:05:23;;;;;;;;;;;17.20;52.90;;;;;;4994550;28;20460;-80
2022/04/16 12:07:49;;;;;;;;;;;16.70;52.20;;;;;;4978328;28;19921;-80
2022/04/16 12:10:18;;;;;;;;;;;16.60;52.40;;;;;;4978241;28;19929;-80
2022/04/16 12:12:53;;;;;;;;;;;16.50;52.00;;;;;;4994396;28;20376;-80
2022/04/16 12:15:23;;;;;;;;;;;16.20;51.00;;;;;;4991023;28;19933;-80
2022/04/16 12:17:49;;;;;;;;;;;16.10;50.30;;;;;;4975268;28;20274;-80
2022/04/16 12:20:14;;;;;;;;;;;16.40;51.10;;;;;;4991205;28;19921;-79
2022/04/16 12:22:50;;;;;;;;;;;16.30;50.40;;;;;;4990874;28;20293;-79
2022/04/16 12:25:17;;;;;;;;;;;16.20;50.80;;;;;;4991140;28;19961;-80
2022/04/16 12:27:46;;;;;;;;;;;16.40;50.70;;;;;;4990890;28;19937;-79
2022/04/16 12:30:16;;;;;;;;;;;16.50;50.10;;;;;;4990788;28;20369;-79
2022/04/16 12:32:42;;;;;;;;;;;16.50;50.30;;;;;;4974880;28;19917;-80
2022/04/16 12:35:08;;;;;;;;;;;16.40;49.70;;;;;;4990731;28;20323;-80
2022/04/16 12:37:33;;;;;;;;;;;16.70;51.40;;;;;;4990939;28;19918;-79
2022/04/16 12:39:59;;;;;;;;;;;16.80;50.90;;;;;;4974517;28;20396;-79
2022/04/16 12:42:24;;;;;;;;;;;16.80;50.30;;;;;;4991052;28;20281;-79
2022/04/16 12:44:50;;;;;;;;;;;16.80;50.60;;;;;;4990810;28;19922;-80
2022/04/16 12:47:15;;;;;;;;;;;16.50;50.70;;;;;;4990454;28;20404;-79
2022/04/16 12:49:42;;;;;;;;;;;16.60;50.10;;;;;;4974501;28;19926;-79
2022/04/16 12:52:08;;;;;;;;;;;16.60;50.00;;;;;;4990744;28;19918;-78
2022/04/16 12:54:35;;;;;;;;;;;16.80;50.40;;;;;;4990545;28;19969;-80
2022/04/16 12:57:01;;;;;;;;;;;16.90;50.30;;;;;;4974581;28;19948;-78
2022/04/16 12:59:27;;;;;;;;;;;16.60;48.20;;;;;;4990332;28;19917;-79
2022/04/16 13:01:52;;;;;;;;;;;16.50;49.10;;;;;;4990421;28;19929;-79
2022/04/16 13:04:18;;;;;;;;;;;16.80;49.60;;;;;;4990526;28;19922;-79
2022/04/16 13:06:43;;;;;;;;;;;16.80;49.40;;;;;;4990378;28;19918;-80
2022/04/16 13:09:09;;;;;;;;;;;16.90;49.40;;;;;;4990386;28;20013;-79
2022/04/16 13:11:35;;;;;;;;;;;17.20;51.30;;;;;;4990575;28;20246;-79
2022/04/16 13:14:00;;;;;;;;;;;17.00;46.80;;;;;;4990658;28;20384;-79
2022/04/16 13:16:26;;;;;;;;;;;16.70;47.80;;;;;;4990085;28;20377;-79
2022/04/16 13:18:52;;;;;;;;;;;16.80;49.20;;;;;;4973959;28;19933;-80
2022/04/16 13:21:17;;;;;;;;;;;16.80;48.20;;;;;;4974472;28;19925;-79
2022/04/16 13:23:43;;;;;;;;;;;16.90;49.30;;;;;;4990217;28;19968;-80
2022/04/16 13:26:09;;;;;;;;;;;17.10;49.50;;;;;;4974213;28;19918;-80
2022/04/16 13:28:34;;;;;;;;;;;17.20;48.60;;;;;;4990546;28;19921;-78
2022/04/16 13:31:00;;;;;;;;;;;17.10;47.60;;;;;;4990222;28;20108;-79
2022/04/16 13:33:25;;;;;;;;;;;17.20;47.80;;;;;;4977468;28;20079;-80
2022/04/16 13:35:51;;;;;;;;;;;17.10;47.80;;;;;;4994291;28;19932;-80
2022/04/16 13:38:16;;;;;;;;;;;16.90;47.80;;;;;;4994235;28;19917;-80
2022/04/16 13:43:26;;;;;;;;;;;17.00;48.50;;;;;;4993957;28;20015;-73
2022/04/16 13:45:52;;;;;;;;;;;17.20;48.60;;;;;;4977493;28;19968;-73
2022/04/16 13:48:17;;;;;;;;;;;17.20;48.80;;;;;;4961675;28;20013;-73
2022/04/16 13:50:43;;;;;;;;;;;17.30;50.40;;;;;;4994369;28;19928;-73
2022/04/16 13:53:08;;;;;;;;;;;17.00;48.60;;;;;;4977536;28;19918;-73
2022/04/16 13:55:34;;;;;;;;;;;17.30;49.70;;;;;;4993545;28;19926;-73
2022/04/16 13:57:59;;;;;;;;;;;17.30;48.80;;;;;;4993604;28;19922;-73
2022/04/16 14:00:26;;;;;;;;;;;17.20;47.90;;;;;;4993989;28;19918;-73
2022/04/16 14:02:51;;;;;;;;;;;17.30;49.60;;;;;;4993839;28;19980;-73
2022/04/16 14:08:01;;;;;;;;;;;17.70;49.70;;;;;;4979887;28;19948;-73
2022/04/16 14:10:27;;;;;;;;;;;18.00;50.30;;;;;;4977186;28;20369;-73
2022/04/16 14:12:53;;;;;;;;;;;18.00;48.50;;;;;;4977735;28;20019;-73
2022/04/16 14:15:19;;;;;;;;;;;17.80;48.30;;;;;;4993184;28;19926;-73
2022/04/16 14:17:44;;;;;;;;;;;17.70;48.40;;;;;;4977191;28;19929;-73
2022/04/16 14:20:10;;;;;;;;;;;17.60;48.40;;;;;;4976970;28;19918;-73
2022/04/16 14:22:36;;;;;;;;;;;17.70;48.60;;;;;;4993403;28;19968;-73
2022/04/16 14:25:01;;;;;;;;;;;17.60;48.50;;;;;;4994834;28;19922;-73
2022/04/16 14:27:27;;;;;;;;;;;17.50;48.60;;;;;;4993773;28;19925;-80
2022/04/16 14:29:53;;;;;;;;;;;17.40;47.70;;;;;;4993322;28;20396;-80
2022/04/16 14:32:19;;;;;;;;;;;17.40;48.10;;;;;;4993455;28;19917;-80
2022/04/16 14:34:45;;;;;;;;;;;17.40;48.10;;;;;;4977141;28;19983;-80
2022/04/16 14:37:10;;;;;;;;;;;17.50;48.50;;;;;;4993758;28;19984;-80
2022/04/16 14:39:36;;;;;;;;;;;17.40;48.00;;;;;;4993280;28;19921;-80
2022/04/16 14:42:02;;;;;;;;;;;17.50;48.60;;;;;;4993282;28;19925;-80
2022/04/16 14:44:28;;;;;;;;;;;17.70;48.70;;;;;;4991854;28;19918;-80
2022/04/16 14:46:56;;;;;;;;;;;17.60;47.80;;;;;;4994506;28;19940;-79
2022/04/16 14:49:21;;;;;;;;;;;17.50;48.30;;;;;;4993066;28;20012;-80